sensor_id;sensor_type;location;lat;lon;timestamp;P1;durP1;ratioP1;P2;durP2;ratioP2
43994;SDS011;51687;52.160;5.298;2023-04-03T00:00:40;2.78;;;1.65;;
43994;SDS011;51687;52.160;5.298;2023-04-03T00:03:07;1.90;;;1.52;;
43994;SDS011;51687;52.160;5.298;2023-04-03T00:05:34;5.35;;;2.20;;
43994;SDS011;51687;52.160;5.298;2023-04-03T00:08:01;1.98;;;1.77;;
43994;SDS011;51687;52.160;5.298;2023-04-03T00:10:28;4.70;;;2.28;;
43994;SDS011;51687;52.160;5.298;2023-04-03T00:12:55;4.30;;;2.13;;
43994;SDS011;51687;52.160;5.298;2023-04-03T00:15:22;2.30;;;1.60;;
43994;SDS011;51687;52.160;5.298;2023-04-03T00:17:48;2.72;;;2.17;;
43994;SDS011;51687;52.160;5.298;2023-04-03T00:20:15;2.92;;;1.60;;
43994;SDS011;51687;52.160;5.298;2023-04-03T00:22:42;6.65;;;2.30;;
43994;SDS011;51687;52.160;5.298;2023-04-03T00:25:09;2.10;;;1.67;;
43994;SDS011;51687;52.160;5.298;2023-04-03T00:27:37;1.70;;;1.55;;
43994;SDS011;51687;52.160;5.298;2023-04-03T00:30:06;2.53;;;1.60;;
43994;SDS011;51687;52.160;5.298;2023-04-03T00:32:34;3.67;;;2.10;;
43994;SDS011;51687;52.160;5.298;2023-04-03T00:35:01;2.40;;;1.67;;
43994;SDS011;51687;52.160;5.298;2023-04-03T00:37:28;3.33;;;1.60;;
43994;SDS011;51687;52.160;5.298;2023-04-03T00:39:55;3.55;;;1.80;;
43994;SDS011;51687;52.160;5.298;2023-04-03T00:42:22;2.25;;;1.80;;
43994;SDS011;51687;52.160;5.298;2023-04-03T00:47:19;3.13;;;2.05;;
43994;SDS011;51687;52.160;5.298;2023-04-03T00:49:46;2.72;;;2.10;;
43994;SDS011;51687;52.160;5.298;2023-04-03T00:52:16;3.13;;;1.90;;
43994;SDS011;51687;52.160;5.298;2023-04-03T00:54:45;1.95;;;1.60;;
43994;SDS011;51687;52.160;5.298;2023-04-03T00:57:13;2.25;;;1.95;;
43994;SDS011;51687;52.160;5.298;2023-04-03T00:59:43;1.97;;;1.87;;
43994;SDS011;51687;52.160;5.298;2023-04-03T01:02:13;2.95;;;1.75;;
43994;SDS011;51687;52.160;5.298;2023-04-03T01:04:40;5.25;;;1.83;;
43994;SDS011;51687;52.160;5.298;2023-04-03T01:09:43;2.95;;;2.28;;
43994;SDS011;51687;52.160;5.298;2023-04-03T01:12:15;3.17;;;2.15;;
43994;SDS011;51687;52.160;5.298;2023-04-03T01:14:43;2.55;;;1.92;;
43994;SDS011;51687;52.160;5.298;2023-04-03T01:17:55;4.18;;;1.92;;
43994;SDS011;51687;52.160;5.298;2023-04-03T01:20:24;2.97;;;2.05;;
43994;SDS011;51687;52.160;5.298;2023-04-03T01:25:51;3.67;;;2.22;;
43994;SDS011;51687;52.160;5.298;2023-04-03T01:28:24;3.20;;;2.63;;
43994;SDS011;51687;52.160;5.298;2023-04-03T01:30:57;3.28;;;2.25;;
43994;SDS011;51687;52.160;5.298;2023-04-03T01:33:28;2.75;;;2.10;;
43994;SDS011;51687;52.160;5.298;2023-04-03T01:35:55;5.20;;;2.10;;
43994;SDS011;51687;52.160;5.298;2023-04-03T01:38:22;2.05;;;1.85;;
43994;SDS011;51687;52.160;5.298;2023-04-03T01:40:49;3.25;;;2.08;;
43994;SDS011;51687;52.160;5.298;2023-04-03T01:43:16;5.43;;;1.95;;
43994;SDS011;51687;52.160;5.298;2023-04-03T01:45:43;3.58;;;2.17;;
43994;SDS011;51687;52.160;5.298;2023-04-03T01:48:10;4.50;;;1.92;;
43994;SDS011;51687;52.160;5.298;2023-04-03T01:50:37;2.90;;;2.03;;
43994;SDS011;51687;52.160;5.298;2023-04-03T01:53:04;1.70;;;1.60;;
43994;SDS011;51687;52.160;5.298;2023-04-03T01:55:31;2.35;;;1.90;;
43994;SDS011;51687;52.160;5.298;2023-04-03T01:57:58;2.85;;;2.20;;
43994;SDS011;51687;52.160;5.298;2023-04-03T02:00:25;3.10;;;1.80;;
43994;SDS011;51687;52.160;5.298;2023-04-03T02:02:52;3.72;;;2.47;;
43994;SDS011;51687;52.160;5.298;2023-04-03T02:05:20;2.63;;;1.95;;
43994;SDS011;51687;52.160;5.298;2023-04-03T02:07:47;2.53;;;1.98;;
43994;SDS011;51687;52.160;5.298;2023-04-03T02:10:14;2.72;;;2.10;;
43994;SDS011;51687;52.160;5.298;2023-04-03T02:12:41;3.90;;;2.00;;
43994;SDS011;51687;52.160;5.298;2023-04-03T02:15:08;2.30;;;2.03;;
43994;SDS011;51687;52.160;5.298;2023-04-03T02:17:36;2.60;;;2.22;;
43994;SDS011;51687;52.160;5.298;2023-04-03T02:20:03;4.28;;;1.95;;
43994;SDS011;51687;52.160;5.298;2023-04-03T02:22:31;2.10;;;1.85;;
43994;SDS011;51687;52.160;5.298;2023-04-03T02:24:58;2.42;;;1.98;;
43994;SDS011;51687;52.160;5.298;2023-04-03T02:27:25;2.22;;;1.70;;
43994;SDS011;51687;52.160;5.298;2023-04-03T02:29:52;2.97;;;2.03;;
43994;SDS011;51687;52.160;5.298;2023-04-03T02:32:19;2.22;;;2.03;;
43994;SDS011;51687;52.160;5.298;2023-04-03T02:34:46;4.50;;;2.30;;
43994;SDS011;51687;52.160;5.298;2023-04-03T02:37:13;2.05;;;1.70;;
43994;SDS011;51687;52.160;5.298;2023-04-03T02:39:40;3.15;;;2.05;;
43994;SDS011;51687;52.160;5.298;2023-04-03T02:42:08;3.35;;;2.00;;
43994;SDS011;51687;52.160;5.298;2023-04-03T02:44:35;2.03;;;1.70;;
43994;SDS011;51687;52.160;5.298;2023-04-03T02:47:02;2.00;;;1.83;;
43994;SDS011;51687;52.160;5.298;2023-04-03T02:49:29;3.35;;;2.30;;
43994;SDS011;51687;52.160;5.298;2023-04-03T02:51:55;3.35;;;2.25;;
43994;SDS011;51687;52.160;5.298;2023-04-03T02:54:23;2.63;;;2.28;;
43994;SDS011;51687;52.160;5.298;2023-04-03T02:56:53;2.17;;;1.55;;
43994;SDS011;51687;52.160;5.298;2023-04-03T02:59:21;3.53;;;1.98;;
43994;SDS011;51687;52.160;5.298;2023-04-03T03:01:48;3.85;;;1.92;;
43994;SDS011;51687;52.160;5.298;2023-04-03T03:04:15;3.03;;;1.90;;
43994;SDS011;51687;52.160;5.298;2023-04-03T03:06:42;5.25;;;1.90;;
43994;SDS011;51687;52.160;5.298;2023-04-03T03:09:10;4.65;;;2.13;;
43994;SDS011;51687;52.160;5.298;2023-04-03T03:11:38;3.20;;;1.60;;
43994;SDS011;51687;52.160;5.298;2023-04-03T03:14:05;3.88;;;1.85;;
43994;SDS011;51687;52.160;5.298;2023-04-03T03:16:33;4.45;;;2.13;;
43994;SDS011;51687;52.160;5.298;2023-04-03T03:19:00;3.17;;;2.20;;
43994;SDS011;51687;52.160;5.298;2023-04-03T03:21:27;2.88;;;1.95;;
43994;SDS011;51687;52.160;5.298;2023-04-03T03:23:54;4.13;;;1.90;;
43994;SDS011;51687;52.160;5.298;2023-04-03T03:26:21;4.47;;;1.88;;
43994;SDS011;51687;52.160;5.298;2023-04-03T03:28:49;3.85;;;2.03;;
43994;SDS011;51687;52.160;5.298;2023-04-03T03:31:16;3.15;;;2.03;;
43994;SDS011;51687;52.160;5.298;2023-04-03T03:33:44;4.45;;;2.00;;
43994;SDS011;51687;52.160;5.298;2023-04-03T03:36:11;3.63;;;2.05;;
43994;SDS011;51687;52.160;5.298;2023-04-03T03:38:38;4.75;;;2.10;;
43994;SDS011;51687;52.160;5.298;2023-04-03T03:41:04;3.60;;;2.08;;
43994;SDS011;51687;52.160;5.298;2023-04-03T03:43:31;2.15;;;1.95;;
43994;SDS011;51687;52.160;5.298;2023-04-03T03:45:59;2.53;;;1.98;;
43994;SDS011;51687;52.160;5.298;2023-04-03T03:48:26;2.38;;;2.00;;
43994;SDS011;51687;52.160;5.298;2023-04-03T03:50:53;5.68;;;2.03;;
43994;SDS011;51687;52.160;5.298;2023-04-03T03:53:20;5.95;;;2.03;;
43994;SDS011;51687;52.160;5.298;2023-04-03T03:55:47;4.55;;;2.25;;
43994;SDS011;51687;52.160;5.298;2023-04-03T03:58:14;6.78;;;1.65;;
43994;SDS011;51687;52.160;5.298;2023-04-03T04:00:41;3.42;;;2.00;;
43994;SDS011;51687;52.160;5.298;2023-04-03T04:03:08;4.20;;;1.85;;
43994;SDS011;51687;52.160;5.298;2023-04-03T04:05:35;4.45;;;2.70;;
43994;SDS011;51687;52.160;5.298;2023-04-03T04:08:02;2.72;;;1.85;;
43994;SDS011;51687;52.160;5.298;2023-04-03T04:10:28;2.88;;;1.70;;
43994;SDS011;51687;52.160;5.298;2023-04-03T04:12:55;4.38;;;2.20;;
43994;SDS011;51687;52.160;5.298;2023-04-03T04:15:23;4.90;;;2.72;;
43994;SDS011;51687;52.160;5.298;2023-04-03T04:17:51;2.55;;;2.10;;
43994;SDS011;51687;52.160;5.298;2023-04-03T04:20:19;3.08;;;2.00;;
43994;SDS011;51687;52.160;5.298;2023-04-03T04:22:46;3.42;;;2.20;;
43994;SDS011;51687;52.160;5.298;2023-04-03T04:25:13;5.25;;;2.20;;
43994;SDS011;51687;52.160;5.298;2023-04-03T04:27:40;3.47;;;2.03;;
43994;SDS011;51687;52.160;5.298;2023-04-03T04:30:07;4.13;;;2.40;;
43994;SDS011;51687;52.160;5.298;2023-04-03T04:32:34;4.47;;;2.83;;
43994;SDS011;51687;52.160;5.298;2023-04-03T04:35:01;7.30;;;2.88;;
43994;SDS011;51687;52.160;5.298;2023-04-03T04:37:30;4.78;;;2.10;;
43994;SDS011;51687;52.160;5.298;2023-04-03T04:39:57;4.32;;;2.45;;
43994;SDS011;51687;52.160;5.298;2023-04-03T04:42:24;4.05;;;2.72;;
43994;SDS011;51687;52.160;5.298;2023-04-03T04:44:51;6.30;;;3.03;;
43994;SDS011;51687;52.160;5.298;2023-04-03T04:47:18;3.88;;;2.50;;
43994;SDS011;51687;52.160;5.298;2023-04-03T04:49:45;6.70;;;2.95;;
43994;SDS011;51687;52.160;5.298;2023-04-03T04:52:13;4.85;;;2.58;;
43994;SDS011;51687;52.160;5.298;2023-04-03T04:54:42;4.65;;;3.30;;
43994;SDS011;51687;52.160;5.298;2023-04-03T04:57:09;5.93;;;3.03;;
43994;SDS011;51687;52.160;5.298;2023-04-03T04:59:37;6.72;;;3.33;;
43994;SDS011;51687;52.160;5.298;2023-04-03T05:02:04;5.47;;;3.38;;
43994;SDS011;51687;52.160;5.298;2023-04-03T05:04:31;7.43;;;3.78;;
43994;SDS011;51687;52.160;5.298;2023-04-03T05:06:59;3.45;;;3.13;;
43994;SDS011;51687;52.160;5.298;2023-04-03T05:09:26;9.32;;;3.53;;
43994;SDS011;51687;52.160;5.298;2023-04-03T05:11:55;3.70;;;3.03;;
43994;SDS011;51687;52.160;5.298;2023-04-03T05:14:22;6.60;;;4.07;;
43994;SDS011;51687;52.160;5.298;2023-04-03T05:16:49;4.43;;;3.70;;
43994;SDS011;51687;52.160;5.298;2023-04-03T05:19:19;7.82;;;3.50;;
43994;SDS011;51687;52.160;5.298;2023-04-03T05:21:47;4.57;;;2.90;;
43994;SDS011;51687;52.160;5.298;2023-04-03T05:24:14;6.38;;;3.15;;
43994;SDS011;51687;52.160;5.298;2023-04-03T05:26:42;5.87;;;2.97;;
43994;SDS011;51687;52.160;5.298;2023-04-03T05:29:09;5.07;;;2.72;;
43994;SDS011;51687;52.160;5.298;2023-04-03T05:31:36;5.15;;;3.13;;
43994;SDS011;51687;52.160;5.298;2023-04-03T05:34:03;4.22;;;2.92;;
43994;SDS011;51687;52.160;5.298;2023-04-03T05:36:30;5.45;;;2.72;;
43994;SDS011;51687;52.160;5.298;2023-04-03T05:38:57;5.85;;;3.10;;
43994;SDS011;51687;52.160;5.298;2023-04-03T05:41:24;4.25;;;3.17;;
43994;SDS011;51687;52.160;5.298;2023-04-03T05:43:51;4.60;;;3.20;;
43994;SDS011;51687;52.160;5.298;2023-04-03T05:46:18;6.22;;;3.10;;
43994;SDS011;51687;52.160;5.298;2023-04-03T05:48:46;3.55;;;2.67;;
43994;SDS011;51687;52.160;5.298;2023-04-03T05:51:15;3.97;;;2.60;;
43994;SDS011;51687;52.160;5.298;2023-04-03T05:56:10;9.57;;;3.00;;
43994;SDS011;51687;52.160;5.298;2023-04-03T05:58:37;4.40;;;2.90;;
43994;SDS011;51687;52.160;5.298;2023-04-03T06:01:04;6.50;;;3.28;;
43994;SDS011;51687;52.160;5.298;2023-04-03T06:03:32;7.47;;;3.30;;
43994;SDS011;51687;52.160;5.298;2023-04-03T06:06:02;4.57;;;2.93;;
43994;SDS011;51687;52.160;5.298;2023-04-03T06:08:29;5.43;;;3.15;;
43994;SDS011;51687;52.160;5.298;2023-04-03T06:10:57;8.68;;;3.10;;
43994;SDS011;51687;52.160;5.298;2023-04-03T06:13:24;5.35;;;2.72;;
43994;SDS011;51687;52.160;5.298;2023-04-03T06:15:51;4.20;;;2.60;;
43994;SDS011;51687;52.160;5.298;2023-04-03T06:18:18;5.40;;;3.17;;
43994;SDS011;51687;52.160;5.298;2023-04-03T06:20:45;5.95;;;2.85;;
43994;SDS011;51687;52.160;5.298;2023-04-03T06:23:12;6.90;;;2.83;;
43994;SDS011;51687;52.160;5.298;2023-04-03T06:25:40;6.75;;;2.90;;
43994;SDS011;51687;52.160;5.298;2023-04-03T06:28:08;6.28;;;2.88;;
43994;SDS011;51687;52.160;5.298;2023-04-03T06:30:36;4.55;;;2.50;;
43994;SDS011;51687;52.160;5.298;2023-04-03T06:33:04;5.47;;;2.47;;
43994;SDS011;51687;52.160;5.298;2023-04-03T06:35:31;4.82;;;2.90;;
43994;SDS011;51687;52.160;5.298;2023-04-03T06:38:02;5.97;;;3.03;;
43994;SDS011;51687;52.160;5.298;2023-04-03T06:40:34;7.20;;;2.88;;
43994;SDS011;51687;52.160;5.298;2023-04-03T06:43:03;3.92;;;1.92;;
43994;SDS011;51687;52.160;5.298;2023-04-03T06:45:31;4.78;;;2.67;;
43994;SDS011;51687;52.160;5.298;2023-04-03T06:48:01;5.55;;;2.92;;
43994;SDS011;51687;52.160;5.298;2023-04-03T06:50:30;5.53;;;2.40;;
43994;SDS011;51687;52.160;5.298;2023-04-03T06:52:58;5.60;;;2.20;;
43994;SDS011;51687;52.160;5.298;2023-04-03T06:55:26;3.65;;;2.67;;
43994;SDS011;51687;52.160;5.298;2023-04-03T06:57:54;6.45;;;2.58;;
43994;SDS011;51687;52.160;5.298;2023-04-03T07:00:21;3.28;;;2.05;;
43994;SDS011;51687;52.160;5.298;2023-04-03T07:02:48;6.85;;;3.50;;
43994;SDS011;51687;52.160;5.298;2023-04-03T07:05:15;6.28;;;2.55;;
43994;SDS011;51687;52.160;5.298;2023-04-03T07:07:42;4.72;;;2.35;;
43994;SDS011;51687;52.160;5.298;2023-04-03T07:10:10;6.22;;;2.67;;
43994;SDS011;51687;52.160;5.298;2023-04-03T07:12:37;5.80;;;2.40;;
43994;SDS011;51687;52.160;5.298;2023-04-03T07:15:05;5.95;;;2.50;;
43994;SDS011;51687;52.160;5.298;2023-04-03T07:17:33;6.25;;;2.38;;
43994;SDS011;51687;52.160;5.298;2023-04-03T07:20:00;4.78;;;2.58;;
43994;SDS011;51687;52.160;5.298;2023-04-03T07:22:27;5.90;;;2.50;;
43994;SDS011;51687;52.160;5.298;2023-04-03T07:24:56;7.20;;;2.75;;
43994;SDS011;51687;52.160;5.298;2023-04-03T07:27:25;7.07;;;2.40;;
43994;SDS011;51687;52.160;5.298;2023-04-03T07:29:53;6.90;;;2.87;;
43994;SDS011;51687;52.160;5.298;2023-04-03T07:32:22;4.30;;;2.20;;
43994;SDS011;51687;52.160;5.298;2023-04-03T07:34:49;5.63;;;2.70;;
43994;SDS011;51687;52.160;5.298;2023-04-03T07:37:16;8.07;;;2.28;;
43994;SDS011;51687;52.160;5.298;2023-04-03T07:39:44;5.35;;;2.00;;
43994;SDS011;51687;52.160;5.298;2023-04-03T07:42:11;4.97;;;2.50;;
43994;SDS011;51687;52.160;5.298;2023-04-03T07:44:41;4.45;;;2.60;;
43994;SDS011;51687;52.160;5.298;2023-04-03T07:47:08;4.00;;;2.15;;
43994;SDS011;51687;52.160;5.298;2023-04-03T07:49:36;3.55;;;2.17;;
43994;SDS011;51687;52.160;5.298;2023-04-03T07:52:06;3.42;;;1.67;;
43994;SDS011;51687;52.160;5.298;2023-04-03T07:54:34;5.15;;;1.92;;
43994;SDS011;51687;52.160;5.298;2023-04-03T07:57:02;7.88;;;2.20;;
43994;SDS011;51687;52.160;5.298;2023-04-03T07:59:29;6.75;;;1.92;;
43994;SDS011;51687;52.160;5.298;2023-04-03T08:01:56;5.22;;;1.88;;
43994;SDS011;51687;52.160;5.298;2023-04-03T08:04:24;5.90;;;2.05;;
43994;SDS011;51687;52.160;5.298;2023-04-03T08:06:52;5.65;;;2.00;;
43994;SDS011;51687;52.160;5.298;2023-04-03T08:09:19;4.65;;;2.00;;
43994;SDS011;51687;52.160;5.298;2023-04-03T08:11:47;3.50;;;1.73;;
43994;SDS011;51687;52.160;5.298;2023-04-03T08:14:14;6.78;;;2.13;;
43994;SDS011;51687;52.160;5.298;2023-04-03T08:16:45;4.25;;;1.77;;
43994;SDS011;51687;52.160;5.298;2023-04-03T08:19:12;5.20;;;2.05;;
43994;SDS011;51687;52.160;5.298;2023-04-03T08:21:50;3.42;;;1.73;;
43994;SDS011;51687;52.160;5.298;2023-04-03T08:24:17;4.70;;;1.98;;
43994;SDS011;51687;52.160;5.298;2023-04-03T08:26:44;4.30;;;1.60;;
43994;SDS011;51687;52.160;5.298;2023-04-03T08:29:11;3.95;;;1.83;;
43994;SDS011;51687;52.160;5.298;2023-04-03T08:31:39;3.17;;;1.58;;
43994;SDS011;51687;52.160;5.298;2023-04-03T08:34:06;3.20;;;1.40;;
43994;SDS011;51687;52.160;5.298;2023-04-03T08:36:34;3.30;;;1.63;;
43994;SDS011;51687;52.160;5.298;2023-04-03T08:39:02;2.30;;;1.13;;
43994;SDS011;51687;52.160;5.298;2023-04-03T08:41:34;4.25;;;1.70;;
43994;SDS011;51687;52.160;5.298;2023-04-03T08:49:19;3.33;;;1.40;;
43994;SDS011;51687;52.160;5.298;2023-04-03T08:51:48;1.90;;;1.10;;
43994;SDS011;51687;52.160;5.298;2023-04-03T08:54:21;3.92;;;1.30;;
43994;SDS011;51687;52.160;5.298;2023-04-03T08:56:49;3.05;;;1.42;;
43994;SDS011;51687;52.160;5.298;2023-04-03T08:59:18;2.78;;;1.80;;
43994;SDS011;51687;52.160;5.298;2023-04-03T09:01:48;2.28;;;1.20;;
43994;SDS011;51687;52.160;5.298;2023-04-03T09:04:17;2.47;;;0.95;;
43994;SDS011;51687;52.160;5.298;2023-04-03T09:06:46;3.20;;;1.13;;
43994;SDS011;51687;52.160;5.298;2023-04-03T09:09:35;2.90;;;1.30;;
43994;SDS011;51687;52.160;5.298;2023-04-03T09:12:17;3.28;;;1.10;;
43994;SDS011;51687;52.160;5.298;2023-04-03T09:14:59;1.67;;;1.48;;
43994;SDS011;51687;52.160;5.298;2023-04-03T09:20:16;1.60;;;1.05;;
43994;SDS011;51687;52.160;5.298;2023-04-03T09:22:46;2.17;;;1.10;;
43994;SDS011;51687;52.160;5.298;2023-04-03T09:27:48;2.83;;;0.93;;
43994;SDS011;51687;52.160;5.298;2023-04-03T09:30:18;1.67;;;0.90;;
43994;SDS011;51687;52.160;5.298;2023-04-03T09:32:46;2.70;;;1.05;;
43994;SDS011;51687;52.160;5.298;2023-04-03T09:35:30;3.33;;;1.10;;
43994;SDS011;51687;52.160;5.298;2023-04-03T09:40:45;1.50;;;0.93;;
43994;SDS011;51687;52.160;5.298;2023-04-03T09:45:49;1.23;;;0.70;;
43994;SDS011;51687;52.160;5.298;2023-04-03T09:53:30;0.98;;;0.63;;
43994;SDS011;51687;52.160;5.298;2023-04-03T09:55:58;1.70;;;0.70;;
43994;SDS011;51687;52.160;5.298;2023-04-03T09:58:27;1.42;;;1.02;;
43994;SDS011;51687;52.160;5.298;2023-04-03T10:01:23;2.05;;;0.88;;
43994;SDS011;51687;52.160;5.298;2023-04-03T10:04:06;0.73;;;0.63;;
43994;SDS011;51687;52.160;5.298;2023-04-03T10:06:34;1.00;;;0.70;;
43994;SDS011;51687;52.160;5.298;2023-04-03T10:11:30;0.80;;;0.70;;
43994;SDS011;51687;52.160;5.298;2023-04-03T10:14:01;3.30;;;0.70;;
43994;SDS011;51687;52.160;5.298;2023-04-03T10:16:41;0.68;;;0.50;;
43994;SDS011;51687;52.160;5.298;2023-04-03T10:24:13;0.80;;;0.70;;
43994;SDS011;51687;52.160;5.298;2023-04-03T10:29:36;4.13;;;0.60;;
43994;SDS011;51687;52.160;5.298;2023-04-03T10:38:14;1.60;;;0.88;;
43994;SDS011;51687;52.160;5.298;2023-04-03T10:50:58;0.60;;;0.60;;
43994;SDS011;51687;52.160;5.298;2023-04-03T10:58:42;0.55;;;0.40;;
43994;SDS011;51687;52.160;5.298;2023-04-03T11:01:16;1.45;;;0.68;;
43994;SDS011;51687;52.160;5.298;2023-04-03T11:03:44;0.77;;;0.50;;
43994;SDS011;51687;52.160;5.298;2023-04-03T11:06:13;1.20;;;0.55;;
43994;SDS011;51687;52.160;5.298;2023-04-03T11:11:09;0.75;;;0.50;;
43994;SDS011;51687;52.160;5.298;2023-04-03T11:13:58;0.90;;;0.60;;
43994;SDS011;51687;52.160;5.298;2023-04-03T11:16:35;3.80;;;0.60;;
43994;SDS011;51687;52.160;5.298;2023-04-03T11:19:20;1.80;;;0.80;;
43994;SDS011;51687;52.160;5.298;2023-04-03T11:21:55;1.10;;;0.60;;
43994;SDS011;51687;52.160;5.298;2023-04-03T11:24:27;1.08;;;0.60;;
43994;SDS011;51687;52.160;5.298;2023-04-03T11:26:57;1.75;;;1.27;;
43994;SDS011;51687;52.160;5.298;2023-04-03T11:29:27;0.75;;;0.60;;
43994;SDS011;51687;52.160;5.298;2023-04-03T11:32:23;1.48;;;0.60;;
43994;SDS011;51687;52.160;5.298;2023-04-03T11:35:29;1.23;;;0.75;;
43994;SDS011;51687;52.160;5.298;2023-04-03T11:37:57;0.85;;;0.57;;
43994;SDS011;51687;52.160;5.298;2023-04-03T11:40:26;2.43;;;0.77;;
43994;SDS011;51687;52.160;5.298;2023-04-03T11:42:55;1.90;;;0.77;;
43994;SDS011;51687;52.160;5.298;2023-04-03T11:45:32;2.38;;;0.82;;
43994;SDS011;51687;52.160;5.298;2023-04-03T11:50:51;1.33;;;0.68;;
43994;SDS011;51687;52.160;5.298;2023-04-03T11:55:59;1.23;;;0.77;;
43994;SDS011;51687;52.160;5.298;2023-04-03T12:00:58;1.95;;;0.60;;
43994;SDS011;51687;52.160;5.298;2023-04-03T12:08:28;1.90;;;0.68;;
43994;SDS011;51687;52.160;5.298;2023-04-03T12:11:41;2.20;;;0.80;;
43994;SDS011;51687;52.160;5.298;2023-04-03T12:16:20;1.25;;;0.80;;
43994;SDS011;51687;52.160;5.298;2023-04-03T12:19:44;1.58;;;0.75;;
43994;SDS011;51687;52.160;5.298;2023-04-03T12:22:11;1.08;;;0.60;;
43994;SDS011;51687;52.160;5.298;2023-04-03T12:24:40;1.27;;;0.70;;
43994;SDS011;51687;52.160;5.298;2023-04-03T12:27:34;1.80;;;0.80;;
43994;SDS011;51687;52.160;5.298;2023-04-03T12:30:22;2.23;;;0.77;;
43994;SDS011;51687;52.160;5.298;2023-04-03T12:36:24;0.85;;;0.47;;
43994;SDS011;51687;52.160;5.298;2023-04-03T12:39:21;2.58;;;0.80;;
43994;SDS011;51687;52.160;5.298;2023-04-03T12:47:35;0.90;;;0.80;;
43994;SDS011;51687;52.160;5.298;2023-04-03T12:50:05;1.70;;;1.10;;
43994;SDS011;51687;52.160;5.298;2023-04-03T12:52:46;2.60;;;0.80;;
43994;SDS011;51687;52.160;5.298;2023-04-03T12:55:20;1.58;;;0.82;;
43994;SDS011;51687;52.160;5.298;2023-04-03T12:57:47;1.23;;;0.80;;
43994;SDS011;51687;52.160;5.298;2023-04-03T13:02:56;1.50;;;0.75;;
43994;SDS011;51687;52.160;5.298;2023-04-03T13:05:24;1.48;;;0.90;;
43994;SDS011;51687;52.160;5.298;2023-04-03T13:08:01;1.38;;;0.75;;
43994;SDS011;51687;52.160;5.298;2023-04-03T13:10:31;1.58;;;0.70;;
43994;SDS011;51687;52.160;5.298;2023-04-03T13:13:06;1.95;;;0.90;;
43994;SDS011;51687;52.160;5.298;2023-04-03T13:15:42;2.03;;;0.77;;
43994;SDS011;51687;52.160;5.298;2023-04-03T13:18:22;0.82;;;0.55;;
43994;SDS011;51687;52.160;5.298;2023-04-03T13:20:50;3.33;;;0.90;;
43994;SDS011;51687;52.160;5.298;2023-04-03T13:23:19;1.92;;;0.68;;
43994;SDS011;51687;52.160;5.298;2023-04-03T13:25:47;2.33;;;0.70;;
43994;SDS011;51687;52.160;5.298;2023-04-03T13:28:16;1.07;;;0.70;;
43994;SDS011;51687;52.160;5.298;2023-04-03T13:30:54;1.50;;;0.90;;
43994;SDS011;51687;52.160;5.298;2023-04-03T13:33:24;1.70;;;0.80;;
43994;SDS011;51687;52.160;5.298;2023-04-03T13:35:55;2.67;;;1.10;;
43994;SDS011;51687;52.160;5.298;2023-04-03T13:38:25;0.93;;;0.70;;
43994;SDS011;51687;52.160;5.298;2023-04-03T13:43:35;1.17;;;0.95;;
43994;SDS011;51687;52.160;5.298;2023-04-03T13:48:36;1.58;;;0.98;;
43994;SDS011;51687;52.160;5.298;2023-04-03T13:53:45;2.55;;;1.02;;
43994;SDS011;51687;52.160;5.298;2023-04-03T13:56:23;1.48;;;0.88;;
43994;SDS011;51687;52.160;5.298;2023-04-03T13:59:37;1.35;;;0.98;;
43994;SDS011;51687;52.160;5.298;2023-04-03T14:06:42;1.13;;;0.57;;
43994;SDS011;51687;52.160;5.298;2023-04-03T14:09:09;1.13;;;0.70;;
43994;SDS011;51687;52.160;5.298;2023-04-03T14:11:37;1.65;;;0.80;;
43994;SDS011;51687;52.160;5.298;2023-04-03T14:14:21;1.08;;;0.60;;
43994;SDS011;51687;52.160;5.298;2023-04-03T14:16:53;1.77;;;1.10;;
43994;SDS011;51687;52.160;5.298;2023-04-03T14:21:48;3.33;;;1.10;;
43994;SDS011;51687;52.160;5.298;2023-04-03T14:24:17;2.17;;;1.10;;
43994;SDS011;51687;52.160;5.298;2023-04-03T14:26:45;2.13;;;1.05;;
43994;SDS011;51687;52.160;5.298;2023-04-03T14:29:12;1.98;;;1.13;;
43994;SDS011;51687;52.160;5.298;2023-04-03T14:31:41;1.90;;;0.80;;
43994;SDS011;51687;52.160;5.298;2023-04-03T14:34:09;1.92;;;1.10;;
43994;SDS011;51687;52.160;5.298;2023-04-03T14:36:37;2.83;;;0.98;;
43994;SDS011;51687;52.160;5.298;2023-04-03T14:39:06;1.65;;;1.02;;
43994;SDS011;51687;52.160;5.298;2023-04-03T14:41:34;3.38;;;1.10;;
43994;SDS011;51687;52.160;5.298;2023-04-03T14:44:02;2.03;;;1.27;;
43994;SDS011;51687;52.160;5.298;2023-04-03T14:46:31;1.67;;;1.02;;
43994;SDS011;51687;52.160;5.298;2023-04-03T14:49:21;1.58;;;0.90;;
43994;SDS011;51687;52.160;5.298;2023-04-03T14:51:48;3.10;;;1.48;;
43994;SDS011;51687;52.160;5.298;2023-04-03T14:54:17;1.85;;;0.93;;
43994;SDS011;51687;52.160;5.298;2023-04-03T14:56:47;1.45;;;0.70;;
43994;SDS011;51687;52.160;5.298;2023-04-03T14:59:15;0.95;;;0.80;;
43994;SDS011;51687;52.160;5.298;2023-04-03T15:01:43;2.05;;;1.10;;
43994;SDS011;51687;52.160;5.298;2023-04-03T15:04:14;2.22;;;0.93;;
43994;SDS011;51687;52.160;5.298;2023-04-03T15:06:42;2.05;;;1.05;;
43994;SDS011;51687;52.160;5.298;2023-04-03T15:09:27;2.17;;;1.00;;
43994;SDS011;51687;52.160;5.298;2023-04-03T15:11:55;2.92;;;1.17;;
43994;SDS011;51687;52.160;5.298;2023-04-03T15:14:22;1.70;;;0.95;;
43994;SDS011;51687;52.160;5.298;2023-04-03T15:17:03;2.13;;;1.35;;
43994;SDS011;51687;52.160;5.298;2023-04-03T15:19:36;3.20;;;1.20;;
43994;SDS011;51687;52.160;5.298;2023-04-03T15:22:03;2.25;;;1.30;;
43994;SDS011;51687;52.160;5.298;2023-04-03T15:24:31;2.67;;;1.40;;
43994;SDS011;51687;52.160;5.298;2023-04-03T15:26:59;1.88;;;1.52;;
43994;SDS011;51687;52.160;5.298;2023-04-03T15:29:27;2.97;;;1.63;;
43994;SDS011;51687;52.160;5.298;2023-04-03T15:31:55;2.20;;;1.13;;
43994;SDS011;51687;52.160;5.298;2023-04-03T15:34:23;1.90;;;1.00;;
43994;SDS011;51687;52.160;5.298;2023-04-03T15:36:50;2.22;;;1.20;;
43994;SDS011;51687;52.160;5.298;2023-04-03T15:39:19;2.35;;;0.90;;
43994;SDS011;51687;52.160;5.298;2023-04-03T15:41:47;2.50;;;1.23;;
43994;SDS011;51687;52.160;5.298;2023-04-03T15:44:14;5.40;;;1.30;;
43994;SDS011;51687;52.160;5.298;2023-04-03T15:46:47;3.58;;;1.23;;
43994;SDS011;51687;52.160;5.298;2023-04-03T15:49:15;2.45;;;1.30;;
43994;SDS011;51687;52.160;5.298;2023-04-03T15:51:43;2.50;;;1.20;;
43994;SDS011;51687;52.160;5.298;2023-04-03T15:54:10;4.10;;;1.30;;
43994;SDS011;51687;52.160;5.298;2023-04-03T15:56:40;2.47;;;1.75;;
43994;SDS011;51687;52.160;5.298;2023-04-03T15:59:08;6.15;;;1.38;;
43994;SDS011;51687;52.160;5.298;2023-04-03T16:01:35;3.97;;;1.60;;
43994;SDS011;51687;52.160;5.298;2023-04-03T16:06:32;2.58;;;1.38;;
43994;SDS011;51687;52.160;5.298;2023-04-03T16:11:27;2.55;;;1.00;;
43994;SDS011;51687;52.160;5.298;2023-04-03T16:13:54;2.45;;;1.38;;
43994;SDS011;51687;52.160;5.298;2023-04-03T16:16:21;2.60;;;1.50;;
43994;SDS011;51687;52.160;5.298;2023-04-03T16:18:51;4.38;;;1.98;;
43994;SDS011;51687;52.160;5.298;2023-04-03T16:21:19;3.78;;;1.45;;
43994;SDS011;51687;52.160;5.298;2023-04-03T16:23:46;4.25;;;1.42;;
43994;SDS011;51687;52.160;5.298;2023-04-03T16:26:13;2.50;;;1.20;;
43994;SDS011;51687;52.160;5.298;2023-04-03T16:28:40;2.88;;;1.08;;
43994;SDS011;51687;52.160;5.298;2023-04-03T16:31:07;2.85;;;1.55;;
43994;SDS011;51687;52.160;5.298;2023-04-03T16:33:34;2.40;;;1.42;;
43994;SDS011;51687;52.160;5.298;2023-04-03T16:36:03;1.73;;;1.25;;
43994;SDS011;51687;52.160;5.298;2023-04-03T16:38:30;3.38;;;1.60;;
43994;SDS011;51687;52.160;5.298;2023-04-03T16:40:58;2.08;;;1.15;;
43994;SDS011;51687;52.160;5.298;2023-04-03T16:43:30;1.83;;;1.20;;
43994;SDS011;51687;52.160;5.298;2023-04-03T16:45:58;2.63;;;1.40;;
43994;SDS011;51687;52.160;5.298;2023-04-03T16:48:25;2.75;;;1.35;;
43994;SDS011;51687;52.160;5.298;2023-04-03T16:50:52;1.85;;;1.00;;
43994;SDS011;51687;52.160;5.298;2023-04-03T16:53:23;1.67;;;0.90;;
43994;SDS011;51687;52.160;5.298;2023-04-03T16:55:51;2.58;;;1.10;;